createdAt,value
2023-05-03T00:01:49.826Z,5.28
2023-05-03T00:04:18.522Z,6.40
2023-05-03T00:06:47.054Z,4.93
2023-05-03T00:09:14.784Z,4.93
2023-05-03T00:11:43.964Z,5.60
2023-05-03T00:14:11.595Z,4.75
2023-05-03T00:16:39.191Z,4.50
2023-05-03T00:19:10.567Z,5.13
2023-05-03T00:21:42.738Z,4.95
2023-05-03T00:24:10.327Z,4.82
2023-05-03T00:26:37.985Z,6.22
2023-05-03T00:29:06.995Z,5.45
2023-05-03T00:31:34.728Z,3.92
2023-05-03T00:34:02.367Z,6.30
2023-05-03T00:36:31.121Z,4.93
2023-05-03T00:38:58.744Z,4.88
2023-05-03T00:41:26.405Z,3.83
2023-05-03T00:43:54.211Z,4.40
2023-05-03T00:46:23.249Z,5.00
2023-05-03T00:48:51.314Z,4.88
2023-05-03T00:51:20.332Z,3.78
2023-05-03T00:53:48.018Z,3.92
2023-05-03T00:56:19.486Z,4.85
2023-05-03T00:58:47.223Z,4.85
2023-05-03T01:01:15.415Z,4.60
2023-05-03T01:03:46.489Z,4.28
2023-05-03T01:06:19.117Z,4.22
2023-05-03T01:08:49.126Z,3.42
2023-05-03T01:11:20.644Z,4.72
2023-05-03T01:13:53.425Z,3.83
2023-05-03T01:16:23.518Z,3.95
2023-05-03T01:18:58.177Z,3.33
2023-05-03T01:21:26.721Z,3.23
2023-05-03T01:23:58.002Z,4.13
2023-05-03T01:26:28.363Z,3.85
2023-05-03T01:28:56.912Z,3.28
2023-05-03T01:31:27.908Z,4.45
2023-05-03T01:33:59.277Z,3.13
2023-05-03T01:36:32.038Z,3.90
2023-05-03T01:39:00.450Z,3.40
2023-05-03T01:41:30.146Z,3.80
2023-05-03T01:43:58.798Z,2.90
2023-05-03T01:46:26.506Z,3.53
2023-05-03T01:48:54.278Z,4.07
2023-05-03T01:51:21.871Z,3.42
2023-05-03T01:53:49.602Z,3.47
2023-05-03T01:56:17.420Z,4.15
2023-05-03T01:58:46.392Z,3.60
2023-05-03T02:01:14.084Z,3.95
2023-05-03T02:03:41.783Z,2.72
2023-05-03T02:06:09.543Z,3.33
2023-05-03T02:08:37.940Z,2.97
2023-05-03T02:11:06.216Z,3.08
2023-05-03T02:13:33.855Z,3.08
2023-05-03T02:16:02.876Z,3.35
2023-05-03T02:18:31.480Z,3.72
2023-05-03T02:20:59.212Z,3.33
2023-05-03T02:23:26.842Z,4.15
2023-05-03T02:25:55.009Z,2.97
2023-05-03T02:28:22.640Z,3.25
2023-05-03T02:30:50.294Z,4.20
2023-05-03T02:33:19.288Z,3.45
2023-05-03T02:35:48.231Z,2.88
2023-05-03T02:38:16.381Z,3.78
2023-05-03T02:40:44.043Z,3.70
2023-05-03T02:43:11.756Z,2.95
2023-05-03T02:45:39.382Z,3.70
2023-05-03T02:48:07.370Z,3.72
2023-05-03T02:50:36.767Z,3.60
2023-05-03T02:53:04.516Z,3.47
2023-05-03T02:55:32.689Z,4.47
2023-05-03T02:58:00.888Z,2.50
2023-05-03T03:00:28.776Z,2.55
2023-05-03T03:02:56.534Z,3.10
2023-05-03T03:05:24.300Z,3.00
2023-05-03T03:07:53.276Z,3.83
2023-05-03T03:10:21.141Z,2.88
2023-05-03T03:12:48.741Z,3.67
2023-05-03T03:15:16.450Z,3.22
2023-05-03T03:17:44.168Z,3.00
2023-05-03T03:20:12.887Z,3.67
2023-05-03T03:22:46.344Z,3.47
2023-05-03T03:25:16.019Z,2.83
2023-05-03T03:27:43.813Z,2.80
2023-05-03T03:30:11.906Z,3.08
2023-05-03T03:32:39.578Z,3.22
2023-05-03T03:35:08.588Z,3.90
2023-05-03T03:37:36.207Z,3.47
2023-05-03T03:40:04.206Z,3.88
2023-05-03T03:42:33.455Z,2.90
2023-05-03T03:45:01.066Z,4.53
2023-05-03T03:47:28.740Z,4.20
2023-05-03T03:49:56.736Z,3.80
2023-05-03T03:52:24.939Z,2.95
2023-05-03T03:54:52.667Z,3.30
2023-05-03T03:57:22.128Z,4.22
2023-05-03T03:59:51.447Z,2.78
2023-05-03T04:02:19.394Z,3.65
2023-05-03T04:04:47.050Z,4.75
2023-05-03T04:07:15.416Z,3.33
2023-05-03T04:09:43.535Z,2.75
2023-05-03T04:12:11.518Z,3.67
2023-05-03T04:14:39.127Z,3.35
2023-05-03T04:17:08.264Z,3.67
2023-05-03T04:19:35.973Z,3.83
2023-05-03T04:22:05.774Z,4.13
2023-05-03T04:24:35.829Z,3.70
2023-05-03T04:27:04.575Z,3.75
2023-05-03T04:29:32.448Z,3.50
2023-05-03T04:32:01.382Z,3.83
2023-05-03T04:34:31.172Z,4.32
2023-05-03T04:37:00.602Z,4.25
2023-05-03T04:39:28.616Z,4.43
2023-05-03T04:41:56.514Z,4.40
2023-05-03T04:44:24.332Z,3.90
2023-05-03T04:46:52.348Z,4.35
2023-05-03T04:49:20.196Z,4.65
2023-05-03T04:51:49.217Z,4.20
2023-05-03T04:54:17.240Z,3.83
2023-05-03T04:56:44.833Z,4.07
2023-05-03T04:59:12.582Z,4.22
2023-05-03T05:01:40.400Z,5.55
2023-05-03T05:04:08.313Z,3.92
2023-05-03T05:06:36.186Z,4.80
2023-05-03T05:09:07.411Z,3.80
2023-05-03T05:11:35.129Z,3.65
2023-05-03T05:14:02.764Z,3.92
2023-05-03T05:16:30.478Z,5.30
2023-05-03T05:18:58.234Z,5.03
2023-05-03T05:21:27.058Z,4.25
2023-05-03T05:23:54.687Z,4.22
2023-05-03T05:26:23.750Z,3.90
2023-05-03T05:28:51.629Z,4.53
2023-05-03T05:31:19.275Z,4.30
2023-05-03T05:33:47.050Z,4.55
2023-05-03T05:36:14.890Z,4.10
2023-05-03T05:38:42.639Z,4.35
2023-05-03T05:41:10.485Z,4.05
2023-05-03T05:43:39.454Z,4.22
2023-05-03T05:46:08.367Z,4.35
2023-05-03T05:48:36.163Z,3.55
2023-05-03T05:51:03.931Z,3.75
2023-05-03T05:53:31.552Z,3.42
2023-05-03T05:55:59.370Z,4.30
2023-05-03T05:58:27.158Z,4.05
2023-05-03T06:00:58.547Z,4.15
2023-05-03T06:03:26.328Z,4.35
2023-05-03T06:05:54.869Z,4.25
2023-05-03T06:08:22.712Z,3.22
2023-05-03T06:10:53.061Z,4.75
2023-05-03T06:13:20.872Z,4.88
2023-05-03T06:15:48.594Z,3.92
2023-05-03T06:18:20.031Z,4.00
2023-05-03T06:20:50.307Z,4.25
2023-05-03T06:23:18.374Z,4.47
2023-05-03T06:25:47.105Z,3.60
2023-05-03T06:28:14.743Z,3.67
2023-05-03T06:30:42.415Z,4.13
2023-05-03T06:33:11.735Z,4.53
2023-05-03T06:35:41.155Z,4.47
2023-05-03T06:38:09.615Z,4.20
2023-05-03T06:40:38.466Z,4.07
2023-05-03T06:43:06.571Z,4.28
2023-05-03T06:45:34.452Z,4.60
2023-05-03T06:48:02.403Z,4.47
2023-05-03T06:50:30.075Z,4.75
2023-05-03T06:52:59.127Z,4.40
2023-05-03T06:55:26.744Z,3.65
2023-05-03T06:57:54.395Z,4.90
2023-05-03T07:00:23.138Z,5.38
2023-05-03T07:02:50.985Z,5.18
2023-05-03T07:05:19.005Z,5.03
2023-05-03T07:07:47.350Z,4.53
2023-05-03T07:10:16.332Z,5.28
2023-05-03T07:12:45.154Z,5.00
2023-05-03T07:15:12.849Z,5.35
2023-05-03T07:17:40.621Z,5.10
2023-05-03T07:20:08.903Z,4.78
2023-05-03T07:22:36.530Z,4.88
2023-05-03T07:25:04.941Z,6.15
2023-05-03T07:27:34.282Z,6.38
2023-05-03T07:30:05.356Z,5.13
2023-05-03T07:32:33.585Z,6.50
2023-05-03T07:35:01.277Z,5.45
2023-05-03T07:37:29.392Z,5.60
2023-05-03T07:39:57.764Z,5.47
2023-05-03T07:42:25.391Z,5.70
2023-05-03T07:44:55.568Z,6.95
2023-05-03T07:47:23.255Z,5.22
2023-05-03T07:49:51.121Z,6.68
2023-05-03T07:52:19.201Z,5.80
2023-05-03T07:54:47.062Z,6.13
2023-05-03T07:57:14.851Z,6.07
2023-05-03T07:59:43.420Z,5.82
2023-05-03T08:02:12.594Z,5.95
2023-05-03T08:04:40.464Z,5.95
2023-05-03T08:07:08.808Z,5.90
2023-05-03T08:09:37.336Z,6.47
2023-05-03T08:12:06.221Z,6.10
2023-05-03T08:14:34.169Z,6.30
2023-05-03T08:17:13.254Z,6.00
2023-05-03T08:19:41.614Z,6.75
2023-05-03T08:22:11.101Z,6.78
2023-05-03T08:24:38.779Z,6.90
2023-05-03T08:27:07.997Z,7.63
2023-05-03T08:29:37.605Z,6.18
2023-05-03T08:32:06.040Z,7.43
2023-05-03T08:34:35.043Z,7.03
2023-05-03T08:37:04.381Z,7.13
2023-05-03T08:39:33.282Z,6.32
2023-05-03T08:42:01.810Z,6.00
2023-05-03T08:44:30.534Z,7.25
2023-05-03T08:46:59.750Z,7.47
2023-05-03T08:49:42.841Z,7.07
2023-05-03T08:52:12.324Z,6.72
2023-05-03T08:54:40.176Z,7.22
2023-05-03T08:57:11.453Z,7.22
2023-05-03T08:59:47.687Z,7.15
2023-05-03T09:02:15.940Z,7.75
2023-05-03T09:04:44.057Z,6.53
2023-05-03T09:07:15.964Z,7.38
2023-05-03T09:09:46.884Z,7.80
2023-05-03T09:12:33.910Z,6.82
2023-05-03T09:15:02.016Z,6.80
2023-05-03T09:17:29.979Z,6.95
2023-05-03T09:19:58.895Z,6.80
2023-05-03T09:22:28.810Z,6.47
2023-05-03T09:24:57.115Z,6.78
2023-05-03T09:27:26.428Z,6.65
2023-05-03T09:29:54.605Z,7.70
2023-05-03T09:32:30.344Z,7.10
2023-05-03T09:35:09.913Z,7.57
2023-05-03T09:37:39.162Z,7.18
2023-05-03T09:40:08.554Z,6.80
2023-05-03T09:42:36.233Z,7.53
2023-05-03T09:45:08.538Z,7.57
2023-05-03T09:47:50.425Z,6.93
2023-05-03T09:50:18.164Z,7.25
2023-05-03T09:52:49.861Z,6.95
2023-05-03T09:55:17.842Z,7.18
2023-05-03T09:57:47.637Z,7.20
2023-05-03T10:00:16.872Z,7.55
2023-05-03T10:02:45.716Z,7.35
2023-05-03T10:05:13.892Z,7.65
2023-05-03T10:07:42.075Z,7.93
2023-05-03T10:10:11.489Z,8.18
2023-05-03T10:12:39.900Z,7.13
2023-05-03T10:15:09.269Z,6.55
2023-05-03T10:20:11.667Z,7.47
2023-05-03T10:22:54.317Z,6.97
2023-05-03T10:25:23.458Z,8.40
2023-05-03T10:27:54.342Z,7.18
2023-05-03T10:30:32.820Z,6.28
2023-05-03T10:33:01.166Z,6.57
2023-05-03T10:35:31.391Z,6.35
2023-05-03T10:38:00.439Z,6.93
2023-05-03T10:40:42.145Z,7.60
2023-05-03T10:43:30.148Z,6.53
2023-05-03T10:45:57.930Z,6.95
2023-05-03T10:48:25.614Z,7.40
2023-05-03T10:50:54.369Z,7.82
2023-05-03T10:53:44.795Z,8.00
2023-05-03T10:56:15.740Z,6.88
2023-05-03T10:58:44.499Z,7.13
2023-05-03T11:01:13.124Z,6.32
2023-05-03T11:03:45.541Z,6.88
2023-05-03T11:06:27.911Z,7.38
2023-05-03T11:08:56.726Z,7.35
2023-05-03T11:11:25.716Z,8.27
2023-05-03T11:13:53.535Z,7.57
2023-05-03T11:16:21.250Z,7.80
2023-05-03T11:18:49.569Z,8.00
2023-05-03T11:21:17.382Z,7.25
2023-05-03T11:23:45.579Z,7.78
2023-05-03T11:26:13.361Z,6.75
2023-05-03T11:28:43.152Z,7.18
2023-05-03T11:31:11.427Z,7.30
2023-05-03T11:33:39.485Z,7.93
2023-05-03T11:36:09.533Z,8.80
2023-05-03T11:38:39.004Z,7.18
2023-05-03T11:41:12.645Z,5.45
2023-05-03T11:43:43.433Z,6.53
2023-05-03T11:46:11.503Z,7.00
2023-05-03T11:48:39.307Z,7.65
2023-05-03T11:51:11.562Z,6.65
2023-05-03T11:53:40.013Z,5.97
2023-05-03T11:56:08.537Z,7.30
2023-05-03T11:58:36.674Z,6.70
2023-05-03T12:01:05.892Z,7.80
2023-05-03T12:03:34.352Z,7.55
2023-05-03T12:06:03.358Z,7.03
2023-05-03T12:08:36.564Z,7.38
2023-05-03T12:11:09.491Z,6.10
2023-05-03T12:13:39.611Z,6.82
2023-05-03T12:16:13.590Z,6.45
2023-05-03T12:18:50.172Z,6.43
2023-05-03T12:23:51.588Z,8.05
2023-05-03T12:26:20.219Z,6.60
2023-05-03T12:28:50.063Z,5.63
2023-05-03T12:31:22.467Z,7.72
2023-05-03T12:34:11.282Z,7.20
2023-05-03T12:36:43.654Z,6.82
2023-05-03T12:39:15.936Z,7.35
2023-05-03T12:44:16.798Z,6.75
2023-05-03T12:46:46.199Z,7.28
2023-05-03T12:49:15.476Z,6.60
2023-05-03T12:51:43.518Z,7.40
2023-05-03T12:54:11.799Z,6.72
2023-05-03T12:56:41.644Z,7.15
2023-05-03T13:06:43.808Z,6.82
2023-05-03T13:09:19.191Z,7.07
2023-05-03T13:11:50.203Z,6.70
2023-05-03T13:14:18.141Z,6.78
2023-05-03T13:16:45.958Z,7.32
2023-05-03T13:19:15.891Z,7.05
2023-05-03T13:21:43.519Z,6.35
2023-05-03T13:24:11.147Z,7.35
2023-05-03T13:26:38.790Z,6.13
2023-05-03T13:29:06.463Z,6.72
2023-05-03T13:31:35.085Z,6.32
2023-05-03T13:34:02.793Z,7.03
2023-05-03T13:36:33.458Z,6.90
2023-05-03T13:39:01.870Z,7.55
2023-05-03T13:41:29.571Z,5.57
2023-05-03T13:43:57.205Z,7.30
2023-05-03T13:46:25.203Z,7.00
2023-05-03T13:48:54.818Z,6.35
2023-05-03T13:51:23.906Z,7.28
2023-05-03T13:54:00.475Z,6.47
2023-05-03T13:56:28.478Z,6.32
2023-05-03T13:58:56.964Z,7.10
2023-05-03T14:01:25.810Z,7.28
2023-05-03T14:03:53.537Z,6.88
2023-05-03T14:06:21.756Z,6.97
2023-05-03T14:08:49.476Z,7.95
2023-05-03T14:11:21.766Z,6.72
2023-05-03T14:13:56.995Z,7.07
2023-05-03T14:18:57.038Z,6.80
2023-05-03T14:21:24.924Z,6.50
2023-05-03T14:23:53.701Z,7.38
2023-05-03T14:26:24.235Z,6.57
2023-05-03T14:28:52.752Z,5.85
2023-05-03T14:31:20.751Z,7.20
2023-05-03T14:33:48.738Z,5.93
2023-05-03T14:36:16.563Z,5.82
2023-05-03T14:38:44.294Z,5.80
2023-05-03T14:41:11.983Z,6.70
2023-05-03T14:43:42.843Z,7.28
2023-05-03T14:46:10.569Z,7.00
2023-05-03T14:48:39.016Z,6.78
2023-05-03T14:51:07.342Z,6.97
2023-05-03T14:53:35.867Z,7.75
2023-05-03T14:56:03.698Z,6.97
2023-05-03T14:58:31.331Z,6.55
2023-05-03T15:01:00.360Z,6.70
2023-05-03T15:03:28.159Z,6.70
2023-05-03T15:05:55.974Z,7.00
2023-05-03T15:08:25.963Z,6.47
2023-05-03T15:10:53.752Z,7.07
2023-05-03T15:13:24.349Z,6.63
2023-05-03T15:15:54.332Z,6.35
2023-05-03T15:18:23.992Z,6.45
2023-05-03T15:20:51.988Z,6.05
2023-05-03T15:23:19.670Z,5.57
2023-05-03T15:25:50.457Z,5.82
2023-05-03T15:28:18.046Z,6.78
2023-05-03T15:30:45.934Z,5.90
2023-05-03T15:33:13.634Z,5.93
2023-05-03T15:35:42.664Z,6.38
2023-05-03T15:38:10.561Z,6.07
2023-05-03T15:40:38.219Z,6.28
2023-05-03T15:43:11.641Z,6.80
2023-05-03T15:45:39.288Z,6.22
2023-05-03T15:48:07.949Z,6.65
2023-05-03T15:50:35.930Z,6.20
2023-05-03T15:53:07.457Z,7.35
2023-05-03T15:55:35.445Z,5.80
2023-05-03T15:58:03.278Z,6.55
2023-05-03T16:00:33.731Z,5.97
2023-05-03T16:03:01.594Z,5.32
2023-05-03T16:05:29.446Z,4.68
2023-05-03T16:07:57.334Z,5.40
2023-05-03T16:10:27.348Z,5.97
2023-05-03T16:12:55.084Z,5.65
2023-05-03T16:15:22.779Z,5.65
2023-05-03T16:17:50.678Z,5.72
2023-05-03T16:20:18.765Z,6.32
2023-05-03T16:22:48.184Z,6.50
2023-05-03T16:25:16.571Z,5.63
2023-05-03T16:27:45.806Z,6.20
2023-05-03T16:30:13.769Z,5.85
2023-05-03T16:32:42.767Z,5.82
2023-05-03T16:35:11.757Z,6.03
2023-05-03T16:37:40.824Z,5.70
2023-05-03T16:40:12.103Z,6.68
2023-05-03T16:42:40.108Z,5.10
2023-05-03T16:45:14.413Z,4.95
2023-05-03T16:47:47.897Z,5.63
2023-05-03T16:50:17.997Z,5.10
2023-05-03T16:52:45.886Z,5.93
2023-05-03T16:55:18.532Z,6.22
2023-05-03T16:57:46.163Z,5.05
2023-05-03T17:00:18.931Z,5.50
2023-05-03T17:02:46.777Z,4.97
2023-05-03T17:05:14.948Z,6.13
2023-05-03T17:07:42.923Z,5.18
2023-05-03T17:10:10.856Z,5.95
2023-05-03T17:12:38.642Z,5.63
2023-05-03T17:15:06.922Z,5.93
2023-05-03T17:17:35.981Z,5.85
2023-05-03T17:20:03.806Z,6.03
2023-05-03T17:22:31.737Z,5.18
2023-05-03T17:24:59.574Z,5.00
2023-05-03T17:27:29.615Z,6.10
2023-05-03T17:30:06.657Z,5.25
2023-05-03T17:32:34.950Z,5.35
2023-05-03T17:35:04.172Z,5.47
2023-05-03T17:37:32.113Z,5.07
2023-05-03T17:40:00.016Z,5.47
2023-05-03T17:42:27.738Z,5.25
2023-05-03T17:44:55.498Z,5.70
2023-05-03T17:47:25.135Z,5.95
2023-05-03T17:49:53.195Z,5.85
2023-05-03T17:52:24.843Z,4.85
2023-05-03T17:54:58.177Z,5.65
2023-05-03T17:57:26.593Z,5.38
2023-05-03T17:59:54.296Z,5.40
2023-05-03T18:02:21.976Z,5.00
2023-05-03T18:07:52.414Z,5.13
2023-05-03T18:10:20.165Z,5.38
2023-05-03T18:12:47.992Z,4.82
2023-05-03T18:15:16.364Z,5.22
2023-05-03T18:17:44.504Z,5.13
2023-05-03T18:20:13.620Z,5.13
2023-05-03T18:22:42.297Z,5.95
2023-05-03T18:25:11.453Z,5.50
2023-05-03T18:27:39.558Z,5.93
2023-05-03T18:30:19.111Z,5.88
2023-05-03T18:32:46.785Z,4.95
2023-05-03T18:35:15.665Z,6.57
2023-05-03T18:37:43.647Z,5.20
2023-05-03T18:40:13.187Z,4.55
2023-05-03T18:42:40.917Z,4.80
2023-05-03T18:45:09.416Z,5.18
2023-05-03T18:47:37.126Z,5.10
2023-05-03T18:50:05.354Z,5.25
2023-05-03T18:52:34.729Z,5.32
2023-05-03T18:55:02.494Z,5.07
2023-05-03T18:57:31.474Z,5.18
2023-05-03T19:00:08.026Z,5.97
2023-05-03T19:02:35.889Z,4.68
2023-05-03T19:05:03.762Z,4.25
2023-05-03T19:07:31.995Z,4.72
2023-05-03T19:10:01.119Z,4.90
2023-05-03T19:12:29.275Z,5.53
2023-05-03T19:14:58.306Z,5.03
2023-05-03T19:17:26.166Z,4.78
2023-05-03T19:19:53.975Z,5.18
2023-05-03T19:22:22.470Z,5.10
2023-05-03T19:24:50.333Z,4.57
2023-05-03T19:27:18.056Z,5.05
2023-05-03T19:29:45.714Z,5.25
2023-05-03T19:32:14.876Z,5.15
2023-05-03T19:34:42.613Z,4.68
2023-05-03T19:37:10.478Z,5.40
2023-05-03T19:39:38.191Z,5.40
2023-05-03T19:42:20.952Z,4.75
2023-05-03T19:44:48.670Z,4.85
2023-05-03T19:47:17.733Z,6.13
2023-05-03T19:49:45.541Z,4.40
2023-05-03T19:52:14.014Z,5.65
2023-05-03T19:54:41.684Z,5.95
2023-05-03T19:57:09.420Z,5.05
2023-05-03T19:59:37.478Z,5.72
2023-05-03T20:02:05.683Z,5.10
2023-05-03T20:04:35.117Z,4.43
2023-05-03T20:07:08.570Z,5.30
2023-05-03T20:09:38.160Z,4.75
2023-05-03T20:12:06.502Z,5.22
2023-05-03T20:14:34.147Z,4.80
2023-05-03T20:17:04.156Z,4.65
2023-05-03T20:19:31.768Z,4.10
2023-05-03T20:22:00.863Z,4.85
2023-05-03T20:24:28.566Z,5.30
2023-05-03T20:26:56.325Z,5.15
2023-05-03T20:29:23.956Z,4.70
2023-05-03T20:31:55.293Z,5.38
2023-05-03T20:34:22.980Z,4.25
2023-05-03T20:36:53.168Z,4.97
2023-05-03T20:39:22.176Z,5.10
2023-05-03T20:41:50.734Z,4.55
2023-05-03T20:44:18.444Z,5.00
2023-05-03T20:46:46.310Z,4.60
2023-05-03T20:49:14.404Z,5.05
2023-05-03T20:51:42.090Z,6.55
2023-05-03T20:54:13.575Z,5.28
2023-05-03T20:56:42.614Z,5.07
2023-05-03T20:59:10.925Z,4.90
2023-05-03T21:01:39.669Z,5.35
2023-05-03T21:04:07.518Z,5.20
2023-05-03T21:06:36.153Z,5.60
2023-05-03T21:09:03.800Z,5.68
2023-05-03T21:11:31.450Z,6.47
2023-05-03T21:14:01.939Z,5.28
2023-05-03T21:16:30.056Z,5.10
2023-05-03T21:18:58.304Z,5.05
2023-05-03T21:21:25.972Z,5.47
2023-05-03T21:23:54.186Z,5.00
2023-05-03T21:26:22.273Z,5.18
2023-05-03T21:28:52.044Z,4.65
2023-05-03T21:31:21.097Z,5.65
2023-05-03T21:33:49.064Z,5.20
2023-05-03T21:36:17.024Z,5.32
2023-05-03T21:38:44.616Z,5.25
2023-05-03T21:41:13.689Z,6.15
2023-05-03T21:43:41.314Z,6.20
2023-05-03T21:46:09.323Z,5.25
2023-05-03T21:48:38.605Z,5.57
2023-05-03T21:51:07.014Z,5.05
2023-05-03T21:53:35.529Z,5.25
2023-05-03T21:56:03.347Z,5.53
2023-05-03T21:58:32.721Z,6.57
2023-05-03T22:01:00.342Z,4.15
2023-05-03T22:03:28.346Z,5.28
2023-05-03T22:05:58.530Z,5.38
2023-05-03T22:08:26.169Z,5.60
2023-05-03T22:10:56.105Z,5.57
2023-05-03T22:13:23.806Z,4.93
2023-05-03T22:15:51.703Z,5.22
2023-05-03T22:18:19.557Z,5.43
2023-05-03T22:20:47.201Z,4.93
2023-05-03T22:23:16.281Z,5.80
2023-05-03T22:25:43.965Z,5.15
2023-05-03T22:28:12.035Z,5.45
2023-05-03T22:30:39.761Z,5.82
2023-05-03T22:33:07.698Z,5.47
2023-05-03T22:35:35.406Z,5.38
2023-05-03T22:38:03.730Z,4.93
2023-05-03T22:40:32.783Z,6.20
2023-05-03T22:43:00.410Z,4.72
2023-05-03T22:45:28.914Z,4.55
2023-05-03T22:47:58.826Z,5.45
2023-05-03T22:50:26.544Z,4.25
2023-05-03T22:52:54.336Z,4.80
2023-05-03T22:55:21.970Z,5.07
2023-05-03T22:57:50.962Z,5.13
2023-05-03T23:00:20.168Z,5.35
2023-05-03T23:02:48.610Z,4.60
2023-05-03T23:05:16.773Z,5.28
2023-05-03T23:07:44.454Z,4.57
2023-05-03T23:10:12.405Z,5.45
2023-05-03T23:12:40.352Z,4.60
2023-05-03T23:15:10.355Z,5.53
2023-05-03T23:17:39.046Z,4.15
2023-05-03T23:20:07.487Z,5.47
2023-05-03T23:22:35.254Z,5.80
2023-05-03T23:25:03.832Z,4.80
2023-05-03T23:27:31.547Z,5.80
2023-05-03T23:29:59.698Z,4.90
2023-05-03T23:32:29.206Z,5.57
2023-05-03T23:34:58.029Z,6.18
2023-05-03T23:37:25.661Z,5.55
2023-05-03T23:39:53.601Z,5.60
2023-05-03T23:42:21.240Z,6.70
2023-05-03T23:44:54.959Z,5.47
2023-05-03T23:47:23.663Z,7.23
2023-05-03T23:49:52.863Z,5.95
2023-05-03T23:52:20.770Z,6.30
2023-05-03T23:54:48.506Z,5.95
2023-05-03T23:57:16.312Z,5.70
2023-05-03T23:59:44.300Z,6.32
